createdAt,value
2018-12-26T00:00:19.295Z,101658.61
2018-12-26T00:02:54.429Z,101659.13
2018-12-26T00:09:00.756Z,101665.19
2018-12-26T00:11:36.886Z,101669.94
2018-12-26T00:14:18.509Z,101673.58
2018-12-26T00:16:49.624Z,101671.23
2018-12-26T00:19:20.904Z,101670.83
2018-12-26T00:22:26.691Z,101668.73
2018-12-26T00:25:19.403Z,101667.27
2018-12-26T00:27:51.011Z,101663.49
2018-12-26T00:30:23.425Z,101666.12
2018-12-26T00:33:20.743Z,101655.62
2018-12-26T00:36:09.951Z,101658.78
2018-12-26T00:38:58.588Z,101662.70
2018-12-26T00:41:44.887Z,101658.41
2018-12-26T00:44:29.038Z,101655.06
2018-12-26T00:47:20.730Z,101657.11
2018-12-26T00:50:18.129Z,101654.44
2018-12-26T00:53:07.890Z,101659.12
2018-12-26T00:55:46.246Z,101654.30
2018-12-26T00:58:17.211Z,101650.53
2018-12-26T01:00:49.950Z,101641.67
2018-12-26T01:03:25.724Z,101637.95
2018-12-26T01:06:01.543Z,101634.29
2018-12-26T01:08:41.136Z,101636.93
2018-12-26T01:11:11.985Z,101639.68
2018-12-26T01:13:51.178Z,101633.61
2018-12-26T01:16:41.874Z,101626.06
2018-12-26T01:19:14.679Z,101612.24
2018-12-26T01:21:51.323Z,101624.46
2018-12-26T01:24:27.637Z,101625.17
2018-12-26T01:27:00.504Z,101630.36
2018-12-26T01:29:33.156Z,101622.63
2018-12-26T01:32:20.722Z,101630.89
2018-12-26T01:34:51.710Z,101629.53
2018-12-26T01:37:26.092Z,101626.59
2018-12-26T01:40:01.331Z,101634.81
2018-12-26T01:42:32.576Z,101639.00
2018-12-26T01:45:09.394Z,101644.32
2018-12-26T01:48:02.341Z,101643.56
2018-12-26T01:50:28.083Z,101638.62
2018-12-26T01:53:06.676Z,101649.55
2018-12-26T01:55:42.869Z,101643.30
2018-12-26T01:58:22.798Z,101648.37
2018-12-26T02:01:22.988Z,101650.83
2018-12-26T02:04:39.886Z,101653.25
2018-12-26T02:06:51.619Z,101648.16
2018-12-26T02:09:31.912Z,101649.55
2018-12-26T02:12:19.185Z,101647.18
2018-12-26T02:14:41.707Z,101648.67
2018-12-26T02:17:33.066Z,101647.08
2018-12-26T02:20:04.383Z,101646.86
2018-12-26T02:22:42.949Z,101651.83
2018-12-26T02:25:19.031Z,101652.74
2018-12-26T02:31:00.087Z,101649.12
2018-12-26T02:33:45.144Z,101651.42
2018-12-26T02:36:16.293Z,101653.92
2018-12-26T02:38:50.684Z,101652.97
2018-12-26T02:41:28.103Z,101647.08
2018-12-26T02:44:05.310Z,101653.03
2018-12-26T02:46:40.693Z,101657.95
2018-12-26T02:49:13.289Z,101644.36
2018-12-26T02:51:44.303Z,101646.14
2018-12-26T02:54:17.038Z,101652.25
2018-12-26T02:56:51.859Z,101658.03
2018-12-26T02:59:24.624Z,101657.83
2018-12-26T03:02:04.162Z,101656.06
2018-12-26T03:04:35.496Z,101657.00
2018-12-26T03:07:08.134Z,101653.23
2018-12-26T03:09:45.582Z,101656.93
2018-12-26T03:12:21.001Z,101654.17
2018-12-26T03:14:59.855Z,101643.23
2018-12-26T03:17:37.002Z,101657.23
2018-12-26T03:20:10.125Z,101655.83
2018-12-26T03:22:49.981Z,101646.73
2018-12-26T03:25:30.541Z,101646.14
2018-12-26T03:28:11.579Z,101649.45
2018-12-26T03:30:47.292Z,101655.14
2018-12-26T03:33:21.332Z,101645.56
2018-12-26T03:35:56.652Z,101637.60
2018-12-26T03:38:33.903Z,101608.59
2018-12-26T03:41:08.475Z,101625.30
2018-12-26T03:43:45.931Z,101640.05
2018-12-26T03:46:20.967Z,101634.69
2018-12-26T03:49:03.716Z,101634.91
2018-12-26T03:51:26.690Z,101617.34
2018-12-26T03:54:11.611Z,101627.66
2018-12-26T03:56:42.218Z,101624.30
2018-12-26T03:59:20.063Z,101615.73
2018-12-26T04:02:00.246Z,101603.66
2018-12-26T04:04:33.179Z,101608.28
2018-12-26T04:07:13.968Z,101611.95
2018-12-26T04:10:50.035Z,101609.48
2018-12-26T04:13:05.886Z,101615.28
2018-12-26T04:15:42.338Z,101619.38
2018-12-26T04:18:13.409Z,101615.98
2018-12-26T04:20:51.651Z,101620.53
2018-12-26T04:23:25.792Z,101624.48
2018-12-26T04:26:01.524Z,101629.00
2018-12-26T04:28:38.799Z,101636.33
2018-12-26T04:31:12.892Z,101644.70
2018-12-26T04:33:43.780Z,101649.50
2018-12-26T04:36:16.078Z,101638.97
2018-12-26T04:38:53.384Z,101639.58
2018-12-26T04:41:37.599Z,101628.75
2018-12-26T04:44:08.531Z,101630.01
2018-12-26T04:46:54.815Z,101609.08
2018-12-26T04:49:28.248Z,101596.07
2018-12-26T04:52:05.172Z,101583.31
2018-12-26T04:54:45.450Z,101588.09
2018-12-26T04:57:24.483Z,101590.34
2018-12-26T04:59:53.396Z,101599.85
2018-12-26T05:02:28.506Z,101591.23
2018-12-26T05:05:15.146Z,101594.17
2018-12-26T05:07:46.439Z,101598.34
2018-12-26T05:10:31.372Z,101600.38
2018-12-26T05:13:05.790Z,101607.92
2018-12-26T05:15:42.962Z,101598.78
2018-12-26T05:18:29.670Z,101610.98
2018-12-26T05:21:12.281Z,101608.85
2018-12-26T05:23:47.309Z,101614.55
2018-12-26T05:26:36.073Z,101610.47
2018-12-26T05:29:28.408Z,101606.84
2018-12-26T05:32:09.750Z,101616.34
2018-12-26T05:34:43.743Z,101624.33
2018-12-26T05:37:54.089Z,101617.45
2018-12-26T05:40:01.383Z,101621.84
2018-12-26T05:42:35.958Z,101609.83
2018-12-26T05:45:09.927Z,101601.61
2018-12-26T05:47:51.581Z,101589.58
2018-12-26T05:50:34.271Z,101592.69
2018-12-26T05:53:20.167Z,101594.11
2018-12-26T05:56:21.111Z,101592.10
2018-12-26T06:02:03.647Z,101596.12
2018-12-26T06:04:31.960Z,101605.00
2018-12-26T06:07:23.632Z,101599.70
2018-12-26T06:09:57.678Z,101597.62
2018-12-26T06:12:29.894Z,101594.86
2018-12-26T06:15:03.974Z,101594.55
2018-12-26T06:18:13.915Z,101601.56
2018-12-26T06:20:56.004Z,101582.51
2018-12-26T06:23:38.446Z,101590.14
2018-12-26T06:26:14.962Z,101581.25
2018-12-26T06:28:52.688Z,101583.90
2018-12-26T06:31:29.468Z,101575.92
2018-12-26T06:34:06.553Z,101580.34
2018-12-26T06:36:41.089Z,101585.38
2018-12-26T06:39:16.681Z,101589.54
2018-12-26T06:41:48.865Z,101592.08
2018-12-26T06:44:29.581Z,101580.41
2018-12-26T06:47:00.781Z,101592.74
2018-12-26T06:49:45.307Z,101590.18
2018-12-26T06:52:17.243Z,101590.13
2018-12-26T06:54:56.733Z,101591.89
2018-12-26T06:57:27.301Z,101594.01
2018-12-26T07:00:04.826Z,101592.38
2018-12-26T07:02:36.841Z,101596.80
2018-12-26T07:05:56.280Z,101599.38
2018-12-26T07:07:46.285Z,101597.77
2018-12-26T07:10:20.903Z,101605.94
2018-12-26T07:12:54.196Z,101601.08
2018-12-26T07:16:20.534Z,101597.09
2018-12-26T07:18:13.725Z,101596.67
2018-12-26T07:20:44.688Z,101591.55
2018-12-26T07:23:21.184Z,101593.22
2018-12-26T07:26:03.297Z,101591.14
2018-12-26T07:28:37.182Z,101592.23
2018-12-26T07:31:09.231Z,101597.70
2018-12-26T07:34:11.815Z,101596.20
2018-12-26T07:36:25.842Z,101595.98
2018-12-26T07:39:11.239Z,101585.50
2018-12-26T07:41:43.985Z,101593.89
2018-12-26T07:44:20.202Z,101595.09
2018-12-26T07:47:02.073Z,101590.90
2018-12-26T07:49:30.763Z,101592.72
2018-12-26T07:52:50.687Z,101589.23
2018-12-26T07:55:24.306Z,101595.27
2018-12-26T07:58:17.972Z,101594.50
2018-12-26T08:00:44.300Z,101596.47
2018-12-26T08:03:29.907Z,101596.98
2018-12-26T08:06:18.478Z,101590.84
2018-12-26T08:08:46.071Z,101591.86
2018-12-26T08:11:30.996Z,101591.19
2018-12-26T08:14:04.614Z,101591.84
2018-12-26T08:16:36.647Z,101602.31
2018-12-26T08:19:09.705Z,101594.88
2018-12-26T08:21:50.143Z,101594.52
2018-12-26T08:24:26.889Z,101594.31
2018-12-26T08:27:05.836Z,101606.77
2018-12-26T08:29:36.915Z,101597.68
2018-12-26T08:32:18.208Z,101599.33
2018-12-26T08:35:04.043Z,101600.23
2018-12-26T08:37:35.673Z,101600.61
2018-12-26T08:40:29.674Z,101601.78
2018-12-26T08:43:24.764Z,101606.17
2018-12-26T08:46:23.200Z,101609.73
2018-12-26T08:48:55.665Z,101598.30
2018-12-26T08:51:33.681Z,101598.02
2018-12-26T08:54:29.425Z,101597.34
2018-12-26T08:57:04.743Z,101603.45
2018-12-26T08:59:45.699Z,101606.00
2018-12-26T09:02:20.635Z,101604.08
2018-12-26T09:05:02.050Z,101607.09
2018-12-26T09:07:35.073Z,101619.43
2018-12-26T09:10:12.219Z,101617.70
2018-12-26T09:12:53.297Z,101612.92
2018-12-26T09:15:39.130Z,101609.61
2018-12-26T09:17:57.155Z,101616.23
2018-12-26T09:20:37.235Z,101611.86
2018-12-26T09:23:12.040Z,101616.98
2018-12-26T09:26:00.957Z,101607.02
2018-12-26T09:28:43.958Z,101617.45
2018-12-26T09:31:18.818Z,101623.39
2018-12-26T09:33:49.768Z,101618.31
2018-12-26T09:36:23.550Z,101621.73
2018-12-26T09:38:54.832Z,101612.48
2018-12-26T09:41:40.495Z,101613.73
2018-12-26T09:44:11.434Z,101605.91
2018-12-26T09:46:42.854Z,101613.51
2018-12-26T09:49:13.847Z,101620.00
2018-12-26T09:51:44.932Z,101615.34
2018-12-26T09:54:17.132Z,101615.09
2018-12-26T09:57:11.435Z,101620.79
2018-12-26T09:59:33.824Z,101616.99
2018-12-26T10:02:00.563Z,101609.01
2018-12-26T10:04:31.552Z,101608.25
2018-12-26T10:07:05.804Z,101605.87
2018-12-26T10:09:38.591Z,101610.50
2018-12-26T10:12:16.266Z,101608.66
2018-12-26T10:15:03.439Z,101609.34
2018-12-26T10:18:06.354Z,101612.15
2018-12-26T10:20:39.299Z,101598.38
2018-12-26T10:23:30.924Z,101603.19
2018-12-26T10:26:21.979Z,101596.48
2018-12-26T10:29:00.958Z,101594.34
2018-12-26T10:31:44.526Z,101598.17
2018-12-26T10:34:17.455Z,101593.34
2018-12-26T10:36:46.967Z,101592.25
2018-12-26T10:39:18.111Z,101592.69
2018-12-26T10:42:01.083Z,101585.79
2018-12-26T10:44:51.299Z,101590.19
2018-12-26T10:47:29.872Z,101588.92
2018-12-26T10:50:06.792Z,101578.80
2018-12-26T10:52:39.316Z,101593.31
2018-12-26T10:55:13.515Z,101581.91
2018-12-26T10:57:47.587Z,101579.50
2018-12-26T11:00:21.370Z,101580.56
2018-12-26T11:02:52.576Z,101571.69
2018-12-26T11:05:29.465Z,101572.56
2018-12-26T11:07:57.137Z,101574.03
2018-12-26T11:10:30.226Z,101566.30
2018-12-26T11:13:02.698Z,101572.23
2018-12-26T11:15:44.683Z,101567.66
2018-12-26T11:18:11.916Z,101564.30
2018-12-26T11:20:43.278Z,101557.61
2018-12-26T11:23:16.976Z,101564.39
2018-12-26T11:25:49.749Z,101563.98
2018-12-26T11:28:22.142Z,101556.53
2018-12-26T11:31:21.098Z,101555.95
2018-12-26T11:33:49.180Z,101557.54
2018-12-26T11:36:25.610Z,101555.18
2018-12-26T11:39:02.491Z,101550.93
2018-12-26T11:41:38.155Z,101540.16
2018-12-26T11:44:12.464Z,101535.80
2018-12-26T11:46:43.417Z,101531.55
2018-12-26T11:49:22.654Z,101536.13
2018-12-26T11:51:54.709Z,101529.14
2018-12-26T11:54:31.900Z,101530.99
2018-12-26T11:57:10.207Z,101525.75
2018-12-26T11:59:44.710Z,101539.06
2018-12-26T12:02:20.651Z,101539.40
2018-12-26T12:04:51.484Z,101538.73
2018-12-26T12:07:27.234Z,101530.27
2018-12-26T12:10:02.940Z,101538.27
2018-12-26T12:12:41.521Z,101534.25
2018-12-26T12:15:12.944Z,101534.52
2018-12-26T12:17:45.437Z,101529.00
2018-12-26T12:20:18.968Z,101533.79
2018-12-26T12:22:59.865Z,101536.39
2018-12-26T12:25:31.096Z,101536.48
2018-12-26T12:28:08.396Z,101529.86
2018-12-26T12:30:39.430Z,101538.71
2018-12-26T12:33:12.327Z,101532.48
2018-12-26T12:35:54.978Z,101525.87
2018-12-26T12:38:37.217Z,101524.69
2018-12-26T12:41:11.899Z,101528.82
2018-12-26T12:43:46.716Z,101518.52
2018-12-26T12:46:19.145Z,101521.34
2018-12-26T12:48:54.255Z,101523.77
2018-12-26T12:51:56.247Z,101522.63
2018-12-26T12:54:08.487Z,101519.53
2018-12-26T12:56:41.564Z,101515.03
2018-12-26T12:59:12.413Z,101509.20
2018-12-26T13:01:45.870Z,101514.47
2018-12-26T13:04:19.507Z,101508.67
2018-12-26T13:06:51.622Z,101512.12
2018-12-26T13:09:22.636Z,101512.66
2018-12-26T13:11:57.341Z,101524.73
2018-12-26T13:14:55.366Z,101517.42
2018-12-26T13:17:34.229Z,101516.41
2018-12-26T13:20:14.163Z,101518.45
2018-12-26T13:22:51.019Z,101519.51
2018-12-26T13:25:27.393Z,101512.83
2018-12-26T13:28:04.196Z,101511.20
2018-12-26T13:30:43.560Z,101511.14
2018-12-26T13:33:21.313Z,101513.91
2018-12-26T13:36:02.789Z,101517.29
2018-12-26T13:38:45.204Z,101515.07
2018-12-26T13:41:20.833Z,101515.27
2018-12-26T13:43:54.161Z,101518.23
2018-12-26T13:46:33.734Z,101516.13
2018-12-26T13:49:03.922Z,101519.36
2018-12-26T13:51:37.296Z,101521.96
2018-12-26T13:54:09.790Z,101519.94
2018-12-26T13:56:40.638Z,101517.90
2018-12-26T13:59:11.477Z,101520.08
2018-12-26T14:01:45.641Z,101514.59
2018-12-26T14:04:16.465Z,101520.91
2018-12-26T14:06:47.268Z,101512.57
2018-12-26T14:09:45.108Z,101513.41
2018-12-26T14:12:01.400Z,101507.83
2018-12-26T14:14:44.884Z,101504.05
2018-12-26T14:17:18.416Z,101516.52
2018-12-26T14:19:52.394Z,101518.27
2018-12-26T14:22:30.131Z,101521.67
2018-12-26T14:25:03.808Z,101525.91
2018-12-26T14:27:37.033Z,101529.77
2018-12-26T14:30:17.526Z,101527.19
2018-12-26T14:32:49.874Z,101527.34
2018-12-26T14:35:28.995Z,101521.56
2018-12-26T14:38:17.767Z,101526.09
2018-12-26T14:40:44.519Z,101523.14
2018-12-26T14:43:35.671Z,101526.65
2018-12-26T14:46:12.044Z,101522.48
2018-12-26T14:48:48.209Z,101518.84
2018-12-26T14:51:26.332Z,101515.92
2018-12-26T14:53:57.509Z,101521.52
2018-12-26T14:56:29.227Z,101522.98
2018-12-26T14:59:02.142Z,101520.77
2018-12-26T15:01:49.168Z,101515.85
2018-12-26T15:04:25.480Z,101514.38
2018-12-26T15:06:58.319Z,101521.25
2018-12-26T15:09:32.761Z,101520.55
2018-12-26T15:12:07.450Z,101523.91
2018-12-26T15:14:38.441Z,101519.13
2018-12-26T15:17:12.242Z,101525.04
2018-12-26T15:19:49.019Z,101522.59
2018-12-26T15:22:18.117Z,101509.55
2018-12-26T15:24:52.971Z,101513.03
2018-12-26T15:27:34.025Z,101509.88
2018-12-26T15:30:02.000Z,101509.38
2018-12-26T15:32:33.124Z,101514.30
2018-12-26T15:35:03.881Z,101515.53
2018-12-26T15:37:38.298Z,101517.86
2018-12-26T15:40:12.514Z,101510.61
2018-12-26T15:42:52.444Z,101515.41
2018-12-26T15:45:25.632Z,101510.24
2018-12-26T15:48:24.735Z,101504.44
2018-12-26T15:51:16.002Z,101498.66
2018-12-26T15:53:57.806Z,101507.21
2018-12-26T15:56:29.138Z,101507.13
2018-12-26T15:59:02.898Z,101511.92
2018-12-26T16:01:35.319Z,101512.58
2018-12-26T16:04:09.469Z,101506.77
2018-12-26T16:06:40.393Z,101507.73
2018-12-26T16:09:26.765Z,101508.94
2018-12-26T16:12:07.210Z,101506.37
2018-12-26T16:14:39.146Z,101521.81
2018-12-26T16:17:10.114Z,101518.52
2018-12-26T16:19:41.341Z,101514.64
2018-12-26T16:22:25.170Z,101516.84
2018-12-26T16:25:04.706Z,101523.39
2018-12-26T16:27:43.534Z,101522.59
2018-12-26T16:30:14.555Z,101522.73
2018-12-26T16:32:48.660Z,101520.66
2018-12-26T16:35:23.500Z,101521.39
2018-12-26T16:38:02.242Z,101518.83
2018-12-26T16:40:40.860Z,101520.45
2018-12-26T16:43:18.535Z,101521.70
2018-12-26T16:45:53.238Z,101520.53
2018-12-26T16:49:01.474Z,101521.34
2018-12-26T16:51:42.124Z,101524.90
2018-12-26T16:54:25.621Z,101530.45
2018-12-26T16:57:02.536Z,101527.30
2018-12-26T16:59:47.883Z,101523.72
2018-12-26T17:02:13.555Z,101523.45
2018-12-26T17:04:49.413Z,101517.78
2018-12-26T17:07:45.498Z,101518.23
2018-12-26T17:10:25.256Z,101520.63
2018-12-26T17:13:04.785Z,101526.55
2018-12-26T17:15:46.018Z,101528.11
2018-12-26T17:18:54.708Z,101525.97
2018-12-26T17:21:05.145Z,101523.50
2018-12-26T17:23:39.153Z,101525.33
2018-12-26T17:26:13.392Z,101529.11
2018-12-26T17:29:00.078Z,101531.20
2018-12-26T17:31:33.077Z,101530.06
2018-12-26T17:34:06.932Z,101538.83
2018-12-26T17:36:52.459Z,101537.26
2018-12-26T17:39:24.631Z,101538.09
2018-12-26T17:41:59.706Z,101537.77
2018-12-26T17:44:32.064Z,101540.11
2018-12-26T17:47:04.961Z,101543.84
2018-12-26T17:49:42.372Z,101544.92
2018-12-26T17:52:15.079Z,101546.91
2018-12-26T17:55:40.749Z,101542.41
2018-12-26T17:58:20.596Z,101553.72
2018-12-26T18:01:53.811Z,101547.42
2018-12-26T18:04:29.401Z,101547.30
2018-12-26T18:07:00.247Z,101545.52
2018-12-26T18:09:32.485Z,101548.35
2018-12-26T18:12:11.827Z,101541.41
2018-12-26T18:14:41.599Z,101548.95
2018-12-26T18:17:15.542Z,101551.65
2018-12-26T18:19:51.147Z,101545.55
2018-12-26T18:22:25.477Z,101542.30
2018-12-26T18:24:56.416Z,101546.34
2018-12-26T18:27:44.016Z,101551.13
2018-12-26T18:30:21.202Z,101547.72
2018-12-26T18:32:56.895Z,101548.11
2018-12-26T18:35:41.349Z,101549.84
2018-12-26T18:38:24.572Z,101552.56
2018-12-26T18:41:06.578Z,101552.20
2018-12-26T18:44:05.399Z,101556.75
2018-12-26T18:46:36.261Z,101546.34
2018-12-26T18:49:22.128Z,101554.45
2018-12-26T18:52:00.788Z,101554.27
2018-12-26T18:54:46.609Z,101552.33
2018-12-26T18:57:34.229Z,101561.46
2018-12-26T19:00:11.860Z,101561.67
2018-12-26T19:02:54.103Z,101560.94
2018-12-26T19:05:24.582Z,101562.58
2018-12-26T19:08:02.887Z,101562.23
2018-12-26T19:10:49.926Z,101552.28
2018-12-26T19:13:20.980Z,101566.61
2018-12-26T19:15:56.079Z,101572.05
2018-12-26T19:20:15.942Z,101563.53
2018-12-26T19:21:27.539Z,101561.38
2018-12-26T19:24:15.020Z,101556.94
2018-12-26T19:26:37.914Z,101561.36
2018-12-26T19:29:36.310Z,101560.34
2018-12-26T19:32:26.657Z,101560.92
2018-12-26T19:35:00.178Z,101562.44
2018-12-26T19:37:35.693Z,101559.79
2018-12-26T19:40:12.845Z,101562.14
2018-12-26T19:42:46.007Z,101558.22
2018-12-26T19:45:24.745Z,101559.89
2018-12-26T19:47:55.591Z,101558.48
2018-12-26T19:50:38.476Z,101563.38
2018-12-26T19:53:27.454Z,101557.78
2018-12-26T19:55:57.085Z,101552.52
2018-12-26T19:58:37.691Z,101551.59
2018-12-26T20:01:10.344Z,101558.35
2018-12-26T20:03:42.491Z,101560.14
2018-12-26T20:06:14.102Z,101554.95
2018-12-26T20:08:45.660Z,101557.95
2018-12-26T20:11:16.517Z,101551.89
2018-12-26T20:13:53.695Z,101550.48
2018-12-26T20:16:25.779Z,101552.28
2018-12-26T20:19:01.427Z,101553.58
2018-12-26T20:21:41.252Z,101552.75
2018-12-26T20:24:22.809Z,101555.02
2018-12-26T20:34:15.022Z,101548.05
2018-12-26T20:36:57.293Z,101554.50
2018-12-26T20:40:20.121Z,101547.34
2018-12-26T20:43:01.333Z,101543.28
2018-12-26T20:45:37.499Z,101540.58
2018-12-26T20:48:28.239Z,101538.91
2018-12-26T20:51:12.047Z,101538.63
2018-12-26T20:54:55.373Z,101539.11
2018-12-26T20:56:50.150Z,101533.59
2018-12-26T21:00:08.620Z,101540.73
2018-12-26T21:03:08.745Z,101534.78
2018-12-26T21:05:47.947Z,101533.79
2018-12-26T21:08:29.563Z,101532.66
2018-12-26T21:11:40.424Z,101534.06
2018-12-26T21:14:08.925Z,101535.80
2018-12-26T21:16:40.052Z,101531.91
2018-12-26T21:19:11.268Z,101539.08
2018-12-26T21:22:07.188Z,101538.51
2018-12-26T21:24:43.992Z,101543.14
2018-12-26T21:27:34.492Z,101538.55
2018-12-26T21:30:17.407Z,101542.09
2018-12-26T21:32:55.836Z,101545.57
2018-12-26T21:35:25.566Z,101540.22
2018-12-26T21:38:04.149Z,101539.14
2018-12-26T21:40:50.965Z,101538.30
2018-12-26T21:43:33.343Z,101543.03
2018-12-26T21:46:02.525Z,101546.41
2018-12-26T21:48:39.868Z,101544.63
2018-12-26T21:51:15.646Z,101549.45
2018-12-26T21:56:05.007Z,101539.16
2018-12-26T21:57:03.771Z,101541.70
2018-12-26T21:59:36.746Z,101542.09
2018-12-26T22:02:22.636Z,101541.63
2018-12-26T22:04:46.930Z,101542.00
2018-12-26T22:07:20.319Z,101542.97
2018-12-26T22:10:12.226Z,101543.88
2018-12-26T22:12:36.561Z,101544.84
2018-12-26T22:15:09.816Z,101544.42
2018-12-26T22:18:14.714Z,101539.67
2018-12-26T22:21:50.174Z,101542.21
2018-12-26T22:23:45.924Z,101537.61
2018-12-26T22:26:20.091Z,101537.84
2018-12-26T22:28:53.811Z,101537.59
2018-12-26T22:31:39.698Z,101533.67
2018-12-26T22:35:10.739Z,101538.91
2018-12-26T22:37:28.831Z,101534.39
2018-12-26T22:40:10.801Z,101526.71
2018-12-26T22:43:16.413Z,101534.17
2018-12-26T22:45:59.586Z,101532.67
2018-12-26T22:48:30.669Z,101534.62
2018-12-26T22:51:47.248Z,101533.20
2018-12-26T22:55:36.786Z,101533.48
2018-12-26T22:58:52.023Z,101533.37
2018-12-26T23:00:49.419Z,101530.53
2018-12-26T23:03:22.687Z,101532.01
2018-12-26T23:05:55.364Z,101531.06
2018-12-26T23:08:32.463Z,101531.00
2018-12-26T23:11:31.242Z,101527.20
2018-12-26T23:14:03.576Z,101529.53
2018-12-26T23:20:02.626Z,101524.55
2018-12-26T23:23:06.561Z,101524.66
2018-12-26T23:25:20.326Z,101527.79
2018-12-26T23:28:16.851Z,101524.56
2018-12-26T23:31:20.541Z,101523.70
2018-12-26T23:33:47.962Z,101521.30
2018-12-26T23:36:28.212Z,101524.20
2018-12-26T23:39:00.772Z,101518.91
2018-12-26T23:42:01.513Z,101512.15
2018-12-26T23:48:16.021Z,101511.33
2018-12-26T23:51:47.510Z,101502.38
2018-12-26T23:54:27.676Z,101503.37
2018-12-26T23:57:10.088Z,101495.34
2018-12-26T23:59:48.728Z,101494.09
